Ilona — VJN3432 — position and weather

sailwx.info

Track history (hours):
 
Tides and Currents Weather Stations Pressure Air Temp Water Temp Dewpoint Dewpoint Depression Visibility Wind Speed Wind Dir Waves Ship Positions

Ilona

Last reported at 2016-May-05 11:06 UTC. Time now 2016-May-05 21:54 UTC.
Position N 41°23' E 002°11'.

Length 74 m; draft 3.8 m.

Type: Pleasure craft. MMSI: 503514000.

Date/timePositionNaut miles runAvg speedWind from/ knotsBaromVisibWave heightAir tempDewpointWater temp
2016-May-05 11:06N 41°23' E 002°11'0 0.0
2016-May-04 11:18N 41°23' E 002°11'0 0.0
2016-May-04 10:30N 41°23' E 002°11'0 0.0
2016-May-04 09:24N 41°23' E 002°11'  
2016-Apr-26 04:21N 41°04' E 002°04'911.2
2016-Apr-26 03:33N 40°56' E 001°58'2511.8
2016-Apr-26 01:28N 40°34' E 001°43'1011.5
2016-Apr-26 00:33N 40°25' E 001°37'1111.1
2016-Apr-25 23:33N 40°15' E 001°30'1211.9
2016-Apr-25 22:33N 40°04' E 001°23'1211.7
2016-Apr-25 21:33N 39°54' E 001°16'  
Track history (hours):
 
Tides and Currents Weather Stations Pressure Air Temp Water Temp Dewpoint Dewpoint Depression Visibility Wind Speed Wind Dir Waves Ship Positions

Ilona

Last reported at 2016-May-05 11:06 UTC. Time now 2016-May-05 21:54 UTC.
Position N 41°23' E 002°11'.

Length 74 m; draft 3.8 m.

Type: Pleasure craft. MMSI: 503514000.

Date/timePositionNaut miles runAvg speedWind from/ knotsBaromVisibWave heightAir tempDewpointWater temp
2016-May-05 11:06N 41°23' E 002°11'0 0.0
2016-May-04 11:18N 41°23' E 002°11'0 0.0
2016-May-04 10:30N 41°23' E 002°11'0 0.0
2016-May-04 09:24N 41°23' E 002°11'  
2016-Apr-26 04:21N 41°04' E 002°04'911.2
2016-Apr-26 03:33N 40°56' E 001°58'2511.8
2016-Apr-26 01:28N 40°34' E 001°43'1011.5
2016-Apr-26 00:33N 40°25' E 001°37'1111.1
2016-Apr-25 23:33N 40°15' E 001°30'1211.9
2016-Apr-25 22:33N 40°04' E 001°23'1211.7
2016-Apr-25 21:33N 39°54' E 001°16'  

Dump ship's entire track history